createdAt,value
2024-01-19T00:00:09.293Z,46.77
2024-01-19T00:02:37.077Z,46.93
2024-01-19T00:05:07.091Z,46.58
2024-01-19T00:07:34.728Z,46.93
2024-01-19T00:10:02.558Z,46.79
2024-01-19T00:12:36.598Z,46.81
2024-01-19T00:15:07.128Z,46.90
2024-01-19T00:17:35.331Z,46.80
2024-01-19T00:20:03.738Z,46.83
2024-01-19T00:22:33.455Z,46.88
2024-01-19T00:25:01.388Z,47.11
2024-01-19T00:27:30.817Z,46.89
2024-01-19T00:29:59.167Z,46.64
2024-01-19T00:32:26.879Z,47.42
2024-01-19T00:34:54.805Z,47.25
2024-01-19T00:37:22.577Z,46.83
2024-01-19T00:39:51.650Z,46.83
2024-01-19T00:42:19.897Z,47.03
2024-01-19T00:44:47.614Z,46.58
2024-01-19T00:47:15.320Z,46.80
2024-01-19T00:49:43.130Z,46.72
2024-01-19T00:52:11.265Z,46.34
2024-01-19T00:54:39.352Z,47.03
2024-01-19T00:57:08.447Z,46.79
2024-01-19T00:59:36.076Z,46.69
2024-01-19T01:02:03.706Z,47.23
2024-01-19T01:04:32.025Z,47.10
2024-01-19T01:06:59.625Z,47.18
2024-01-19T01:09:27.456Z,47.23
2024-01-19T01:11:55.122Z,47.36
2024-01-19T01:14:24.601Z,47.47
2024-01-19T01:16:52.255Z,46.84
2024-01-19T01:19:20.057Z,47.21
2024-01-19T01:21:47.811Z,46.88
2024-01-19T01:24:15.843Z,46.82
2024-01-19T01:26:43.847Z,46.48
2024-01-19T01:29:13.180Z,46.59
2024-01-19T01:31:42.114Z,46.72
2024-01-19T01:34:12.306Z,47.01
2024-01-19T01:36:40.557Z,47.18
2024-01-19T01:39:08.391Z,47.29
2024-01-19T01:41:37.312Z,47.16
2024-01-19T01:44:06.037Z,47.26
2024-01-19T01:46:34.835Z,47.20
2024-01-19T01:49:04.047Z,47.40
2024-01-19T01:51:32.935Z,46.91
2024-01-19T01:54:00.596Z,46.50
2024-01-19T01:56:29.572Z,47.01
2024-01-19T01:58:57.561Z,47.02
2024-01-19T02:01:25.158Z,47.00
2024-01-19T02:03:56.138Z,46.61
2024-01-19T02:06:25.445Z,47.03
2024-01-19T02:08:53.359Z,47.25
2024-01-19T02:11:21.477Z,46.91
2024-01-19T02:13:49.207Z,46.92
2024-01-19T02:16:16.952Z,46.64
2024-01-19T02:18:44.655Z,46.47
2024-01-19T02:21:12.323Z,46.50
2024-01-19T02:23:50.385Z,46.53
2024-01-19T02:26:19.612Z,46.14
2024-01-19T02:28:47.144Z,46.37
2024-01-19T02:31:14.946Z,46.39
2024-01-19T02:33:42.605Z,46.40
2024-01-19T02:36:10.799Z,46.54
2024-01-19T02:38:38.309Z,46.32
2024-01-19T02:41:06.196Z,46.11
2024-01-19T02:43:35.137Z,46.61
2024-01-19T02:46:02.932Z,46.34
2024-01-19T02:48:30.653Z,46.52
2024-01-19T02:50:58.391Z,46.60
2024-01-19T02:53:26.056Z,46.35
2024-01-19T02:55:53.629Z,46.49
2024-01-19T02:58:21.164Z,46.22
2024-01-19T03:00:50.046Z,46.92
2024-01-19T03:03:17.745Z,46.15
2024-01-19T03:05:45.374Z,46.08
2024-01-19T03:08:13.015Z,46.88
2024-01-19T03:10:40.558Z,46.98
2024-01-19T03:13:08.215Z,46.72
2024-01-19T03:15:36.151Z,46.98
2024-01-19T03:18:06.083Z,46.90
2024-01-19T03:20:34.014Z,46.48
2024-01-19T03:23:01.907Z,46.65
2024-01-19T03:25:29.518Z,46.98
2024-01-19T03:27:57.096Z,46.97
2024-01-19T03:30:25.664Z,46.73
2024-01-19T03:32:53.518Z,46.92
2024-01-19T03:35:22.554Z,46.73
2024-01-19T03:37:50.617Z,46.86
2024-01-19T03:40:18.214Z,46.89
2024-01-19T03:42:45.968Z,46.39
2024-01-19T03:45:13.577Z,46.13
2024-01-19T03:47:41.243Z,46.84
2024-01-19T03:50:10.038Z,46.02
2024-01-19T03:52:48.458Z,46.07
2024-01-19T03:55:18.904Z,46.51
2024-01-19T03:57:46.755Z,46.32
2024-01-19T04:00:14.581Z,46.10
2024-01-19T04:02:42.260Z,46.15
2024-01-19T04:05:10.308Z,46.69
2024-01-19T04:07:39.181Z,46.72
2024-01-19T04:10:07.867Z,46.17
2024-01-19T04:12:37.172Z,46.12
2024-01-19T04:15:06.319Z,46.50
2024-01-19T04:17:34.127Z,46.44
2024-01-19T04:20:01.786Z,46.48
2024-01-19T04:22:29.870Z,46.03
2024-01-19T04:24:58.799Z,46.13
2024-01-19T04:27:26.265Z,46.55
2024-01-19T04:29:53.834Z,46.30
2024-01-19T04:32:22.713Z,46.06
2024-01-19T04:34:50.342Z,46.34
2024-01-19T04:37:17.892Z,46.21
2024-01-19T04:39:45.571Z,46.23
2024-01-19T04:42:14.636Z,46.32
2024-01-19T04:44:42.644Z,46.27
2024-01-19T04:47:11.070Z,46.33
2024-01-19T04:49:38.675Z,46.36
2024-01-19T04:52:06.451Z,46.17
2024-01-19T04:54:33.956Z,46.52
2024-01-19T04:57:01.601Z,46.63
2024-01-19T04:59:30.473Z,46.52
2024-01-19T05:01:58.263Z,46.77
2024-01-19T05:04:25.772Z,46.61
2024-01-19T05:06:53.392Z,46.52
2024-01-19T05:09:20.993Z,46.58
2024-01-19T05:11:48.572Z,47.07
2024-01-19T05:14:16.058Z,46.32
2024-01-19T05:16:45.028Z,46.55
2024-01-19T05:19:12.590Z,46.65
2024-01-19T05:21:40.145Z,46.59
2024-01-19T05:24:08.037Z,46.71
2024-01-19T05:26:35.607Z,46.46
2024-01-19T05:29:03.242Z,47.11
2024-01-19T05:31:30.933Z,46.81
2024-01-19T05:34:00.041Z,46.38
2024-01-19T05:36:27.833Z,47.02
2024-01-19T05:38:55.834Z,47.01
2024-01-19T05:41:23.701Z,47.02
2024-01-19T05:43:51.665Z,47.14
2024-01-19T05:46:19.218Z,46.86
2024-01-19T05:48:46.845Z,46.92
2024-01-19T05:51:17.708Z,46.85
2024-01-19T05:53:45.758Z,46.58
2024-01-19T05:56:13.315Z,46.63
2024-01-19T05:58:41.048Z,46.47
2024-01-19T06:01:08.804Z,47.35
2024-01-19T06:03:36.820Z,46.73
2024-01-19T06:06:05.153Z,47.43
2024-01-19T06:08:34.543Z,47.32
2024-01-19T06:11:02.173Z,47.14
2024-01-19T06:13:29.890Z,46.97
2024-01-19T06:15:57.500Z,47.11
2024-01-19T06:18:25.361Z,47.27
2024-01-19T06:20:53.406Z,47.29
2024-01-19T06:23:21.446Z,46.89
2024-01-19T06:25:50.487Z,47.06
2024-01-19T06:28:18.340Z,46.91
2024-01-19T06:30:46.364Z,46.73
2024-01-19T06:33:14.020Z,46.89
2024-01-19T06:35:41.801Z,46.94
2024-01-19T06:38:09.372Z,47.04
2024-01-19T06:40:36.926Z,47.08
2024-01-19T06:43:05.870Z,47.25
2024-01-19T06:45:33.451Z,47.16
2024-01-19T06:48:01.040Z,46.84
2024-01-19T06:50:28.662Z,47.14
2024-01-19T06:52:58.323Z,47.12
2024-01-19T06:55:27.562Z,46.77
2024-01-19T06:57:55.123Z,47.03
2024-01-19T07:00:24.176Z,46.84
2024-01-19T07:02:51.829Z,46.71
2024-01-19T07:05:20.799Z,46.98
2024-01-19T07:07:48.680Z,47.08
2024-01-19T07:10:16.518Z,47.11
2024-01-19T07:12:44.125Z,46.95
2024-01-19T07:15:11.828Z,47.05
2024-01-19T07:17:40.846Z,47.32
2024-01-19T07:20:10.050Z,47.12
2024-01-19T07:22:38.019Z,47.00
2024-01-19T07:25:06.674Z,47.24
2024-01-19T07:27:37.089Z,46.76
2024-01-19T07:30:04.413Z,46.96
2024-01-19T07:32:39.432Z,46.65
2024-01-19T07:35:16.045Z,46.84
2024-01-19T07:37:43.858Z,46.91
2024-01-19T07:40:12.188Z,46.56
2024-01-19T07:42:40.100Z,46.59
2024-01-19T07:45:08.614Z,46.76
2024-01-19T07:47:36.817Z,46.48
2024-01-19T07:50:06.088Z,46.69
2024-01-19T07:52:48.555Z,46.43
2024-01-19T07:55:18.939Z,46.62
2024-01-19T07:57:46.613Z,46.93
2024-01-19T08:00:15.038Z,46.89
2024-01-19T08:02:44.957Z,46.68
2024-01-19T08:05:12.583Z,46.73
2024-01-19T08:07:41.895Z,47.14
2024-01-19T08:10:10.420Z,46.86
2024-01-19T08:12:38.216Z,46.89
2024-01-19T08:15:08.725Z,46.54
2024-01-19T08:17:36.598Z,46.88
2024-01-19T08:20:10.539Z,46.75
2024-01-19T08:22:38.335Z,46.94
2024-01-19T08:25:08.141Z,46.74
2024-01-19T08:27:35.767Z,46.55
2024-01-19T08:30:04.009Z,46.63
2024-01-19T08:32:32.698Z,46.94
2024-01-19T08:35:00.387Z,46.82
2024-01-19T08:37:29.867Z,46.77
2024-01-19T08:39:59.977Z,46.66
2024-01-19T08:42:30.132Z,46.83
2024-01-19T08:44:57.970Z,47.15
2024-01-19T08:47:25.722Z,46.95
2024-01-19T08:49:53.845Z,46.75
2024-01-19T08:52:21.583Z,46.83
2024-01-19T08:54:49.270Z,46.59
2024-01-19T08:57:17.764Z,46.49
2024-01-19T08:59:46.747Z,46.59
2024-01-19T09:02:14.377Z,46.64
2024-01-19T09:04:44.407Z,46.44
2024-01-19T09:07:12.403Z,46.41
2024-01-19T09:09:41.740Z,46.06
2024-01-19T09:12:09.678Z,46.52
2024-01-19T09:14:37.934Z,46.05
2024-01-19T09:17:07.090Z,46.06
2024-01-19T09:19:36.925Z,45.90
2024-01-19T09:22:06.918Z,45.72
2024-01-19T09:24:34.623Z,45.85
2024-01-19T09:27:02.376Z,46.08
2024-01-19T09:29:53.131Z,45.89
2024-01-19T09:32:34.051Z,45.96
2024-01-19T09:35:01.709Z,46.54
2024-01-19T09:37:29.261Z,46.55
2024-01-19T09:39:56.895Z,45.96
2024-01-19T09:42:29.225Z,46.17
2024-01-19T09:45:05.078Z,46.30
2024-01-19T09:47:44.017Z,45.60
2024-01-19T09:50:18.764Z,46.19
2024-01-19T09:52:53.356Z,46.09
2024-01-19T09:55:22.687Z,45.76
2024-01-19T09:57:51.969Z,45.73
2024-01-19T10:00:21.052Z,45.79
2024-01-19T10:02:53.912Z,45.76
2024-01-19T10:05:23.473Z,45.91
2024-01-19T10:07:54.624Z,45.77
2024-01-19T10:10:22.421Z,45.79
2024-01-19T10:12:50.069Z,45.34
2024-01-19T10:15:18.422Z,45.47
2024-01-19T10:17:47.269Z,45.66
2024-01-19T10:20:17.808Z,45.01
2024-01-19T10:22:45.586Z,44.97
2024-01-19T10:25:14.718Z,45.16
2024-01-19T10:27:45.628Z,45.04
2024-01-19T10:30:16.161Z,45.04
2024-01-19T10:32:46.433Z,43.75
2024-01-19T10:35:16.974Z,43.32
2024-01-19T10:37:45.364Z,43.02
2024-01-19T10:40:21.594Z,42.10
2024-01-19T10:42:52.021Z,41.76
2024-01-19T10:45:22.161Z,41.37
2024-01-19T10:47:51.744Z,40.27
2024-01-19T10:50:22.078Z,40.21
2024-01-19T10:52:52.715Z,39.96
2024-01-19T10:55:21.845Z,39.59
2024-01-19T10:57:51.399Z,39.41
2024-01-19T11:00:23.854Z,38.56
2024-01-19T11:02:53.495Z,38.86
2024-01-19T11:05:22.606Z,37.12
2024-01-19T11:07:53.531Z,37.88
2024-01-19T11:10:22.081Z,37.63
2024-01-19T11:12:56.229Z,36.44
2024-01-19T11:15:36.659Z,35.03
2024-01-19T11:18:07.119Z,36.49
2024-01-19T11:20:37.200Z,36.51
2024-01-19T11:23:06.471Z,34.98
2024-01-19T11:26:00.760Z,34.38
2024-01-19T11:28:42.169Z,35.94
2024-01-19T11:31:15.935Z,32.81
2024-01-19T11:33:44.133Z,33.97
2024-01-19T11:36:13.511Z,35.40
2024-01-19T11:38:49.854Z,33.28
2024-01-19T11:41:49.964Z,35.74
2024-01-19T11:44:44.195Z,33.65
2024-01-19T11:47:45.517Z,33.77
2024-01-19T11:50:15.280Z,33.15
2024-01-19T11:52:49.897Z,32.76
2024-01-19T11:55:42.873Z,32.85
2024-01-19T11:58:39.682Z,30.31
2024-01-19T12:01:11.283Z,32.31
2024-01-19T12:03:41.856Z,31.46
2024-01-19T12:06:10.645Z,32.52
2024-01-19T12:09:21.177Z,31.16
2024-01-19T12:11:57.758Z,31.06
2024-01-19T12:14:25.699Z,29.92
2024-01-19T12:16:53.536Z,31.60
2024-01-19T12:19:24.183Z,32.20
2024-01-19T12:21:52.496Z,31.82
2024-01-19T12:24:24.624Z,31.51
2024-01-19T12:26:52.566Z,34.83
2024-01-19T12:29:31.786Z,29.72
2024-01-19T12:32:12.199Z,32.02
2024-01-19T12:34:52.139Z,30.72
2024-01-19T12:37:22.268Z,32.23
2024-01-19T12:39:53.819Z,31.65
2024-01-19T12:42:23.125Z,31.78
2024-01-19T12:44:55.774Z,31.29
2024-01-19T12:47:23.407Z,33.08
2024-01-19T12:49:57.292Z,33.01
2024-01-19T12:52:34.534Z,33.45
2024-01-19T12:55:04.469Z,34.31
2024-01-19T12:57:32.316Z,34.25
2024-01-19T13:00:08.890Z,34.03
2024-01-19T13:02:37.637Z,34.73
2024-01-19T13:05:05.967Z,35.91
2024-01-19T13:07:34.042Z,35.12
2024-01-19T13:10:04.403Z,34.52
2024-01-19T13:12:32.128Z,35.58
2024-01-19T13:15:05.645Z,36.56
2024-01-19T13:17:33.409Z,36.62
2024-01-19T13:20:00.995Z,36.18
2024-01-19T13:22:28.871Z,35.27
2024-01-19T13:24:56.561Z,35.46
2024-01-19T13:27:25.454Z,35.43
2024-01-19T13:29:53.216Z,36.62
2024-01-19T13:32:20.942Z,33.73
2024-01-19T13:34:48.770Z,34.47
2024-01-19T13:37:16.368Z,34.47
2024-01-19T13:39:43.917Z,34.84
2024-01-19T13:42:11.544Z,34.67
2024-01-19T13:44:40.514Z,32.99
2024-01-19T13:47:08.437Z,33.62
2024-01-19T13:49:39.287Z,34.15
2024-01-19T13:52:09.523Z,33.91
2024-01-19T13:54:44.896Z,33.41
2024-01-19T13:57:13.209Z,33.89
2024-01-19T13:59:46.996Z,34.27
2024-01-19T14:02:16.478Z,34.73
2024-01-19T14:04:45.233Z,35.03
2024-01-19T14:07:18.232Z,35.21
2024-01-19T14:09:48.367Z,35.66
2024-01-19T14:12:17.712Z,35.52
2024-01-19T14:14:47.049Z,36.31
2024-01-19T14:17:19.379Z,37.19
2024-01-19T14:19:51.155Z,36.80
2024-01-19T14:22:22.100Z,36.48
2024-01-19T14:24:51.417Z,36.82
2024-01-19T14:27:22.425Z,37.67
2024-01-19T14:29:54.797Z,37.73
2024-01-19T14:32:23.381Z,38.18
2024-01-19T14:34:56.394Z,37.81
2024-01-19T14:37:29.424Z,37.92
2024-01-19T14:39:58.182Z,38.58
2024-01-19T14:42:26.169Z,38.41
2024-01-19T14:44:55.408Z,37.87
2024-01-19T14:47:23.520Z,38.82
2024-01-19T14:49:52.825Z,39.29
2024-01-19T14:52:24.356Z,39.11
2024-01-19T14:55:08.056Z,38.81
2024-01-19T14:57:36.153Z,39.71
2024-01-19T15:00:09.382Z,39.27
2024-01-19T15:02:37.684Z,39.77
2024-01-19T15:05:08.184Z,39.87
2024-01-19T15:07:46.793Z,40.52
2024-01-19T15:10:19.414Z,40.06
2024-01-19T15:12:48.346Z,39.94
2024-01-19T15:15:18.376Z,39.91
2024-01-19T15:17:48.685Z,40.35
2024-01-19T15:20:29.285Z,40.48
2024-01-19T15:22:58.725Z,40.19
2024-01-19T15:25:26.917Z,39.95
2024-01-19T15:27:59.691Z,40.94
2024-01-19T15:30:33.580Z,40.45
2024-01-19T15:33:06.886Z,40.76
2024-01-19T15:35:34.790Z,41.14
2024-01-19T15:38:04.114Z,41.35
2024-01-19T15:40:33.169Z,41.09
2024-01-19T15:43:02.243Z,40.55
2024-01-19T15:45:35.620Z,41.22
2024-01-19T15:48:03.743Z,41.39
2024-01-19T15:50:33.999Z,41.73
2024-01-19T15:53:02.218Z,41.83
2024-01-19T15:55:30.425Z,42.01
2024-01-19T15:57:58.595Z,42.21
2024-01-19T16:00:28.177Z,42.38
2024-01-19T16:02:59.109Z,42.24
2024-01-19T16:05:27.522Z,42.66
2024-01-19T16:07:56.332Z,42.61
2024-01-19T16:10:24.444Z,42.13
2024-01-19T16:13:01.467Z,42.65
2024-01-19T16:15:32.033Z,42.49
2024-01-19T16:18:07.050Z,42.84
2024-01-19T16:20:35.709Z,42.57
2024-01-19T16:23:04.957Z,42.37
2024-01-19T16:25:32.761Z,42.98
2024-01-19T16:28:02.457Z,43.10
2024-01-19T16:30:30.415Z,42.70
2024-01-19T16:33:00.628Z,42.37
2024-01-19T16:35:34.686Z,42.83
2024-01-19T16:38:03.546Z,42.54
2024-01-19T16:40:32.885Z,43.12
2024-01-19T16:43:01.112Z,42.91
2024-01-19T16:45:29.716Z,42.53
2024-01-19T16:47:59.319Z,43.23
2024-01-19T16:50:29.239Z,42.96
2024-01-19T16:52:59.198Z,43.58
2024-01-19T16:55:28.898Z,43.00
2024-01-19T16:57:56.840Z,42.87
2024-01-19T17:00:24.833Z,43.98
2024-01-19T17:02:53.306Z,43.12
2024-01-19T17:08:09.212Z,43.18
2024-01-19T17:10:37.550Z,43.86
2024-01-19T17:13:06.710Z,43.98
2024-01-19T17:15:34.972Z,43.74
2024-01-19T17:18:03.706Z,43.16
2024-01-19T17:20:31.410Z,43.85
2024-01-19T17:22:58.114Z,43.97
2024-01-19T17:25:29.477Z,44.31
2024-01-19T17:27:58.279Z,43.77
2024-01-19T17:30:27.781Z,43.48
2024-01-19T17:32:57.560Z,43.71
2024-01-19T17:35:26.619Z,43.79
2024-01-19T17:37:56.379Z,43.47
2024-01-19T17:40:24.593Z,43.98
2024-01-19T17:42:54.816Z,43.98
2024-01-19T17:45:23.285Z,43.34
2024-01-19T17:47:53.522Z,43.99
2024-01-19T17:50:22.377Z,43.97
2024-01-19T17:52:50.419Z,43.55
2024-01-19T17:55:18.696Z,43.97
2024-01-19T17:57:49.477Z,43.47
2024-01-19T18:00:21.087Z,43.71
2024-01-19T18:02:49.971Z,44.06
2024-01-19T18:05:17.988Z,43.40
2024-01-19T18:07:46.689Z,43.59
2024-01-19T18:10:17.503Z,43.94
2024-01-19T18:12:45.993Z,43.57
2024-01-19T18:15:17.237Z,44.24
2024-01-19T18:17:50.284Z,44.08
2024-01-19T18:20:18.209Z,44.54
2024-01-19T18:22:46.364Z,43.74
2024-01-19T18:25:14.821Z,43.66
2024-01-19T18:27:42.429Z,43.38
2024-01-19T18:30:11.709Z,43.49
2024-01-19T18:32:41.808Z,43.87
2024-01-19T18:35:13.536Z,44.04
2024-01-19T18:37:44.497Z,43.70
2024-01-19T18:40:13.843Z,43.84
2024-01-19T18:42:41.407Z,43.65
2024-01-19T18:45:10.296Z,43.42
2024-01-19T18:47:40.645Z,43.71
2024-01-19T18:50:12.538Z,43.74
2024-01-19T18:52:42.006Z,43.28
2024-01-19T18:55:13.592Z,42.99
2024-01-19T18:57:42.031Z,43.67
2024-01-19T19:00:11.345Z,43.45
2024-01-19T19:02:39.668Z,43.29
2024-01-19T19:05:08.428Z,42.90
2024-01-19T19:07:36.114Z,42.98
2024-01-19T19:10:05.359Z,43.59
2024-01-19T19:12:32.972Z,43.01
2024-01-19T19:15:02.013Z,43.74
2024-01-19T19:17:29.676Z,43.44
2024-01-19T19:19:57.561Z,43.12
2024-01-19T19:22:25.081Z,43.55
2024-01-19T19:24:55.465Z,43.59
2024-01-19T19:27:24.402Z,43.66
2024-01-19T19:29:51.899Z,43.23
2024-01-19T19:32:19.492Z,43.25
2024-01-19T19:34:48.621Z,43.25
2024-01-19T19:37:16.230Z,43.29
2024-01-19T19:39:49.740Z,43.24
2024-01-19T19:42:18.248Z,43.61
2024-01-19T19:44:48.277Z,43.38
2024-01-19T19:47:16.048Z,43.72
2024-01-19T19:49:43.828Z,43.07
2024-01-19T19:52:11.482Z,43.33
2024-01-19T19:54:39.241Z,42.86
2024-01-19T19:57:07.265Z,43.05
2024-01-19T19:59:37.594Z,43.33
2024-01-19T20:02:07.006Z,43.11
2024-01-19T20:04:34.535Z,43.33
2024-01-19T20:07:02.031Z,42.56
2024-01-19T20:09:29.713Z,42.77
2024-01-19T20:11:57.470Z,43.42
2024-01-19T20:14:25.044Z,42.83
2024-01-19T20:16:52.571Z,42.98
2024-01-19T20:19:21.584Z,43.43
2024-01-19T20:21:49.431Z,42.99
2024-01-19T20:24:16.941Z,43.37
2024-01-19T20:26:44.446Z,43.93
2024-01-19T20:29:12.111Z,43.22
2024-01-19T20:31:39.752Z,42.80
2024-01-19T20:34:07.542Z,42.97
2024-01-19T20:36:36.901Z,43.20
2024-01-19T20:39:04.755Z,43.17
2024-01-19T20:41:36.641Z,43.45
2024-01-19T20:44:04.402Z,43.56
2024-01-19T20:46:32.076Z,43.47
2024-01-19T20:48:59.775Z,43.12
2024-01-19T20:51:30.567Z,43.88
2024-01-19T20:53:59.656Z,43.01
2024-01-19T20:56:27.174Z,43.37
2024-01-19T20:58:54.701Z,43.67
2024-01-19T21:01:22.383Z,43.37
2024-01-19T21:03:52.283Z,43.21
2024-01-19T21:06:20.314Z,43.72
2024-01-19T21:08:48.036Z,43.97
2024-01-19T21:11:17.369Z,43.44
2024-01-19T21:13:45.805Z,44.32
2024-01-19T21:16:13.390Z,43.99
2024-01-19T21:18:41.266Z,43.52
2024-01-19T21:21:09.406Z,44.01
2024-01-19T21:23:38.085Z,44.49
2024-01-19T21:26:06.092Z,44.02
2024-01-19T21:28:35.176Z,44.15
2024-01-19T21:31:02.732Z,44.15
2024-01-19T21:33:30.256Z,43.94
2024-01-19T21:35:57.968Z,43.89
2024-01-19T21:38:25.664Z,43.85
2024-01-19T21:40:53.461Z,44.16
2024-01-19T21:43:21.132Z,43.50
2024-01-19T21:45:50.652Z,44.13
2024-01-19T21:48:19.787Z,44.20
2024-01-19T21:50:49.301Z,44.52
2024-01-19T21:53:17.291Z,44.78
2024-01-19T21:55:45.974Z,44.02
2024-01-19T21:58:14.816Z,44.58
2024-01-19T22:00:42.607Z,44.08
2024-01-19T22:03:15.466Z,43.49
2024-01-19T22:05:43.218Z,44.73
2024-01-19T22:08:11.250Z,44.20
2024-01-19T22:10:39.248Z,43.98
2024-01-19T22:13:06.810Z,44.45
2024-01-19T22:15:35.759Z,43.73
2024-01-19T22:18:03.507Z,43.99
2024-01-19T22:20:32.437Z,44.28
2024-01-19T22:22:59.944Z,43.88
2024-01-19T22:25:27.555Z,44.41
2024-01-19T22:27:55.015Z,44.21
2024-01-19T22:30:24.421Z,44.21
2024-01-19T22:32:52.255Z,43.60
2024-01-19T22:35:20.107Z,43.67
2024-01-19T22:37:49.212Z,44.20
2024-01-19T22:40:16.894Z,43.80
2024-01-19T22:42:44.515Z,43.86
2024-01-19T22:45:12.104Z,44.16
2024-01-19T22:47:39.993Z,43.53
2024-01-19T22:50:08.763Z,44.07
2024-01-19T22:52:38.461Z,44.25
2024-01-19T22:55:08.207Z,43.73
2024-01-19T22:57:35.821Z,44.04
2024-01-19T23:00:13.897Z,43.92
2024-01-19T23:02:42.060Z,43.38
2024-01-19T23:05:11.894Z,43.53
2024-01-19T23:07:40.250Z,43.66
2024-01-19T23:10:10.601Z,44.12
2024-01-19T23:12:38.384Z,43.99
2024-01-19T23:15:09.029Z,43.77
2024-01-19T23:17:36.918Z,43.99
2024-01-19T23:20:05.617Z,43.90
2024-01-19T23:22:33.317Z,43.71
2024-01-19T23:25:00.829Z,43.22
2024-01-19T23:27:29.971Z,43.25
2024-01-19T23:29:57.703Z,43.30
2024-01-19T23:32:25.453Z,43.04
2024-01-19T23:34:53.243Z,43.08
2024-01-19T23:37:20.851Z,43.09
2024-01-19T23:39:49.325Z,43.51
2024-01-19T23:42:16.969Z,43.20
2024-01-19T23:44:46.017Z,43.25
2024-01-19T23:47:13.767Z,43.10
2024-01-19T23:49:41.324Z,43.27
2024-01-19T23:52:08.909Z,43.10
2024-01-19T23:54:36.569Z,43.24
2024-01-19T23:57:04.286Z,43.39
2024-01-19T23:59:33.148Z,43.24
